sensor_id;sensor_type;location;lat;lon;timestamp;temperature;humidity
29729;DHT22;20055;51.498;11.960;2022-09-09T00:00:21;15.80;99.90
29729;DHT22;20055;51.498;11.960;2022-09-09T00:02:59;15.80;99.90
29729;DHT22;20055;51.498;11.960;2022-09-09T00:05:58;15.80;99.90
29729;DHT22;20055;51.498;11.960;2022-09-09T00:08:51;15.80;99.90
29729;DHT22;20055;51.498;11.960;2022-09-09T00:11:29;15.70;99.90
29729;DHT22;20055;51.498;11.960;2022-09-09T00:14:00;15.80;99.90
29729;DHT22;20055;51.498;11.960;2022-09-09T00:16:32;15.70;99.90
29729;DHT22;20055;51.498;11.960;2022-09-09T00:21:38;15.70;99.90
29729;DHT22;20055;51.498;11.960;2022-09-09T00:24:45;15.70;99.90
29729;DHT22;20055;51.498;11.960;2022-09-09T00:32:53;15.70;99.90
29729;DHT22;20055;51.498;11.960;2022-09-09T00:35:25;15.70;99.90
29729;DHT22;20055;51.498;11.960;2022-09-09T00:38:01;15.60;99.90
29729;DHT22;20055;51.498;11.960;2022-09-09T00:40:34;15.60;99.90
29729;DHT22;20055;51.498;11.960;2022-09-09T00:43:31;15.60;99.90
29729;DHT22;20055;51.498;11.960;2022-09-09T00:57:13;15.60;99.90
29729;DHT22;20055;51.498;11.960;2022-09-09T01:00:16;15.50;99.90
29729;DHT22;20055;51.498;11.960;2022-09-09T01:05:50;15.50;99.90
29729;DHT22;20055;51.498;11.960;2022-09-09T01:11:32;15.50;99.90
29729;DHT22;20055;51.498;11.960;2022-09-09T01:16:57;15.40;99.90
29729;DHT22;20055;51.498;11.960;2022-09-09T01:28:00;15.30;99.90
29729;DHT22;20055;51.498;11.960;2022-09-09T01:30:29;15.40;99.90
29729;DHT22;20055;51.498;11.960;2022-09-09T01:32:58;15.50;99.90
29729;DHT22;20055;51.498;11.960;2022-09-09T01:35:47;15.40;99.90
29729;DHT22;20055;51.498;11.960;2022-09-09T01:38:16;15.40;99.90
29729;DHT22;20055;51.498;11.960;2022-09-09T01:40:44;15.40;99.90
29729;DHT22;20055;51.498;11.960;2022-09-09T01:43:10;15.40;99.90
29729;DHT22;20055;51.498;11.960;2022-09-09T01:45:39;15.30;99.90
29729;DHT22;20055;51.498;11.960;2022-09-09T01:48:06;15.30;99.90
29729;DHT22;20055;51.498;11.960;2022-09-09T01:51:01;15.30;99.90
29729;DHT22;20055;51.498;11.960;2022-09-09T01:53:28;15.20;99.90
29729;DHT22;20055;51.498;11.960;2022-09-09T02:01:58;15.20;99.90
29729;DHT22;20055;51.498;11.960;2022-09-09T02:07:30;15.20;99.90
29729;DHT22;20055;51.498;11.960;2022-09-09T02:10:10;15.30;99.90
29729;DHT22;20055;51.498;11.960;2022-09-09T02:12:43;15.30;99.90
29729;DHT22;20055;51.498;11.960;2022-09-09T02:15:26;15.30;99.90
29729;DHT22;20055;51.498;11.960;2022-09-09T02:17:56;15.30;99.90
29729;DHT22;20055;51.498;11.960;2022-09-09T02:20:25;15.20;99.90
29729;DHT22;20055;51.498;11.960;2022-09-09T02:22:59;15.30;99.90
29729;DHT22;20055;51.498;11.960;2022-09-09T02:25:28;15.30;99.90
29729;DHT22;20055;51.498;11.960;2022-09-09T02:28:16;15.20;99.90
29729;DHT22;20055;51.498;11.960;2022-09-09T02:30:45;15.30;99.90
29729;DHT22;20055;51.498;11.960;2022-09-09T02:33:14;15.30;99.90
29729;DHT22;20055;51.498;11.960;2022-09-09T02:35:47;15.30;99.90
29729;DHT22;20055;51.498;11.960;2022-09-09T02:38:19;15.40;99.90
29729;DHT22;20055;51.498;11.960;2022-09-09T02:40:57;15.40;99.90
29729;DHT22;20055;51.498;11.960;2022-09-09T02:43:24;15.40;99.90
29729;DHT22;20055;51.498;11.960;2022-09-09T02:45:59;15.40;99.90
29729;DHT22;20055;51.498;11.960;2022-09-09T02:49:22;15.50;99.90
29729;DHT22;20055;51.498;11.960;2022-09-09T02:51:49;15.40;99.90
29729;DHT22;20055;51.498;11.960;2022-09-09T02:54:28;15.40;99.90
29729;DHT22;20055;51.498;11.960;2022-09-09T02:57:22;15.50;99.90
29729;DHT22;20055;51.498;11.960;2022-09-09T02:59:50;15.40;99.90
29729;DHT22;20055;51.498;11.960;2022-09-09T03:02:18;15.40;99.90
29729;DHT22;20055;51.498;11.960;2022-09-09T03:04:49;15.40;99.90
29729;DHT22;20055;51.498;11.960;2022-09-09T03:07:21;15.30;99.90
29729;DHT22;20055;51.498;11.960;2022-09-09T03:09:49;15.50;99.90
29729;DHT22;20055;51.498;11.960;2022-09-09T03:12:15;15.30;99.90
29729;DHT22;20055;51.498;11.960;2022-09-09T03:14:42;15.30;99.90
29729;DHT22;20055;51.498;11.960;2022-09-09T03:17:12;15.30;99.90
29729;DHT22;20055;51.498;11.960;2022-09-09T03:19:45;15.30;99.90
29729;DHT22;20055;51.498;11.960;2022-09-09T03:22:12;15.30;99.90
29729;DHT22;20055;51.498;11.960;2022-09-09T03:24:41;15.20;99.90
29729;DHT22;20055;51.498;11.960;2022-09-09T03:27:07;15.20;99.90
29729;DHT22;20055;51.498;11.960;2022-09-09T03:29:36;15.20;99.90
29729;DHT22;20055;51.498;11.960;2022-09-09T03:32:05;15.30;99.90
29729;DHT22;20055;51.498;11.960;2022-09-09T03:34:31;15.30;99.90
29729;DHT22;20055;51.498;11.960;2022-09-09T03:36:58;15.30;99.90
29729;DHT22;20055;51.498;11.960;2022-09-09T03:39:25;15.30;99.90
29729;DHT22;20055;51.498;11.960;2022-09-09T03:41:51;15.30;99.90
29729;DHT22;20055;51.498;11.960;2022-09-09T03:44:18;15.30;99.90
29729;DHT22;20055;51.498;11.960;2022-09-09T03:46:44;15.30;99.90
29729;DHT22;20055;51.498;11.960;2022-09-09T03:49:10;15.30;99.90
29729;DHT22;20055;51.498;11.960;2022-09-09T03:51:37;15.30;99.90
29729;DHT22;20055;51.498;11.960;2022-09-09T03:54:05;15.20;99.90
29729;DHT22;20055;51.498;11.960;2022-09-09T03:56:34;15.30;99.90
29729;DHT22;20055;51.498;11.960;2022-09-09T03:59:01;15.20;99.90
29729;DHT22;20055;51.498;11.960;2022-09-09T04:01:29;15.30;99.90
29729;DHT22;20055;51.498;11.960;2022-09-09T04:03:55;15.30;99.90
29729;DHT22;20055;51.498;11.960;2022-09-09T04:06:24;15.30;99.90
29729;DHT22;20055;51.498;11.960;2022-09-09T04:08:50;15.40;99.90
29729;DHT22;20055;51.498;11.960;2022-09-09T04:11:19;15.70;99.90
29729;DHT22;20055;51.498;11.960;2022-09-09T04:13:48;16.10;99.90
29729;DHT22;20055;51.498;11.960;2022-09-09T04:16:15;16.50;99.90
29729;DHT22;20055;51.498;11.960;2022-09-09T04:18:43;17.00;99.90
29729;DHT22;20055;51.498;11.960;2022-09-09T04:21:11;17.50;99.90
29729;DHT22;20055;51.498;11.960;2022-09-09T04:23:38;17.70;99.90
29729;DHT22;20055;51.498;11.960;2022-09-09T04:26:05;18.00;99.90
29729;DHT22;20055;51.498;11.960;2022-09-09T04:28:35;18.20;99.90
29729;DHT22;20055;51.498;11.960;2022-09-09T04:31:07;18.30;99.90
29729;DHT22;20055;51.498;11.960;2022-09-09T04:33:35;18.30;99.90
29729;DHT22;20055;51.498;11.960;2022-09-09T04:36:02;18.50;99.90
29729;DHT22;20055;51.498;11.960;2022-09-09T04:38:29;18.50;99.90
29729;DHT22;20055;51.498;11.960;2022-09-09T04:40:55;18.50;99.90
29729;DHT22;20055;51.498;11.960;2022-09-09T04:43:22;18.60;99.90
29729;DHT22;20055;51.498;11.960;2022-09-09T04:45:50;18.60;99.90
29729;DHT22;20055;51.498;11.960;2022-09-09T04:48:18;18.60;99.90
29729;DHT22;20055;51.498;11.960;2022-09-09T04:51:06;18.70;99.90
29729;DHT22;20055;51.498;11.960;2022-09-09T04:53:34;18.70;99.90
29729;DHT22;20055;51.498;11.960;2022-09-09T04:56:06;18.70;99.90
29729;DHT22;20055;51.498;11.960;2022-09-09T04:58:37;18.80;99.90
29729;DHT22;20055;51.498;11.960;2022-09-09T05:01:12;18.80;99.90
29729;DHT22;20055;51.498;11.960;2022-09-09T05:03:40;18.70;99.90
29729;DHT22;20055;51.498;11.960;2022-09-09T05:06:11;18.70;99.90
29729;DHT22;20055;51.498;11.960;2022-09-09T05:08:39;18.60;99.90
29729;DHT22;20055;51.498;11.960;2022-09-09T05:11:22;18.40;99.90
29729;DHT22;20055;51.498;11.960;2022-09-09T05:13:54;18.00;99.90
29729;DHT22;20055;51.498;11.960;2022-09-09T05:16:21;17.70;99.90
29729;DHT22;20055;51.498;11.960;2022-09-09T05:18:47;17.50;99.90
29729;DHT22;20055;51.498;11.960;2022-09-09T05:21:16;17.40;99.90
29729;DHT22;20055;51.498;11.960;2022-09-09T05:23:44;17.30;99.90
29729;DHT22;20055;51.498;11.960;2022-09-09T05:26:15;17.20;99.90
29729;DHT22;20055;51.498;11.960;2022-09-09T05:28:42;17.20;99.90
29729;DHT22;20055;51.498;11.960;2022-09-09T05:31:10;17.20;99.90
29729;DHT22;20055;51.498;11.960;2022-09-09T05:33:40;17.10;99.90
29729;DHT22;20055;51.498;11.960;2022-09-09T05:36:10;17.00;99.90
29729;DHT22;20055;51.498;11.960;2022-09-09T05:38:40;17.00;99.90
29729;DHT22;20055;51.498;11.960;2022-09-09T05:41:07;17.00;99.90
29729;DHT22;20055;51.498;11.960;2022-09-09T05:43:34;17.00;99.90
29729;DHT22;20055;51.498;11.960;2022-09-09T05:46:09;17.10;99.90
29729;DHT22;20055;51.498;11.960;2022-09-09T05:48:39;17.10;99.90
29729;DHT22;20055;51.498;11.960;2022-09-09T05:51:24;17.20;99.90
29729;DHT22;20055;51.498;11.960;2022-09-09T05:53:51;17.30;99.90
29729;DHT22;20055;51.498;11.960;2022-09-09T05:56:23;17.30;99.90
29729;DHT22;20055;51.498;11.960;2022-09-09T05:58:52;17.40;99.90
29729;DHT22;20055;51.498;11.960;2022-09-09T06:01:22;17.50;99.90
29729;DHT22;20055;51.498;11.960;2022-09-09T06:03:50;17.50;99.90
29729;DHT22;20055;51.498;11.960;2022-09-09T06:06:20;17.40;99.90
29729;DHT22;20055;51.498;11.960;2022-09-09T06:08:50;17.40;99.90
29729;DHT22;20055;51.498;11.960;2022-09-09T06:11:22;17.30;99.90
29729;DHT22;20055;51.498;11.960;2022-09-09T06:13:49;17.40;99.90
29729;DHT22;20055;51.498;11.960;2022-09-09T06:16:23;17.50;99.90
29729;DHT22;20055;51.498;11.960;2022-09-09T06:18:51;17.50;99.90
29729;DHT22;20055;51.498;11.960;2022-09-09T06:21:20;17.50;99.90
29729;DHT22;20055;51.498;11.960;2022-09-09T06:23:48;17.50;99.90
29729;DHT22;20055;51.498;11.960;2022-09-09T06:26:22;17.70;99.90
29729;DHT22;20055;51.498;11.960;2022-09-09T06:28:52;17.70;99.90
29729;DHT22;20055;51.498;11.960;2022-09-09T06:31:26;17.80;99.90
29729;DHT22;20055;51.498;11.960;2022-09-09T06:33:54;17.80;99.90
29729;DHT22;20055;51.498;11.960;2022-09-09T06:36:31;18.00;99.90
29729;DHT22;20055;51.498;11.960;2022-09-09T06:38:59;18.10;99.90
29729;DHT22;20055;51.498;11.960;2022-09-09T06:41:30;18.10;99.90
29729;DHT22;20055;51.498;11.960;2022-09-09T06:43:57;18.20;99.90
29729;DHT22;20055;51.498;11.960;2022-09-09T06:46:32;18.30;99.90
29729;DHT22;20055;51.498;11.960;2022-09-09T06:49:00;18.40;99.90
29729;DHT22;20055;51.498;11.960;2022-09-09T06:51:32;18.50;99.90
29729;DHT22;20055;51.498;11.960;2022-09-09T06:54:01;18.50;99.90
29729;DHT22;20055;51.498;11.960;2022-09-09T06:59:01;18.70;99.90
29729;DHT22;20055;51.498;11.960;2022-09-09T07:01:32;18.90;99.90
29729;DHT22;20055;51.498;11.960;2022-09-09T07:04:01;19.20;99.90
29729;DHT22;20055;51.498;11.960;2022-09-09T07:06:30;19.40;99.90
29729;DHT22;20055;51.498;11.960;2022-09-09T07:09:02;19.50;99.90
29729;DHT22;20055;51.498;11.960;2022-09-09T07:11:33;19.80;99.90
29729;DHT22;20055;51.498;11.960;2022-09-09T07:14:00;20.10;99.90
29729;DHT22;20055;51.498;11.960;2022-09-09T07:16:27;20.20;99.90
29729;DHT22;20055;51.498;11.960;2022-09-09T07:18:56;20.30;99.90
29729;DHT22;20055;51.498;11.960;2022-09-09T07:21:29;20.20;99.90
29729;DHT22;20055;51.498;11.960;2022-09-09T07:23:56;20.40;99.90
29729;DHT22;20055;51.498;11.960;2022-09-09T07:26:27;20.30;99.90
29729;DHT22;20055;51.498;11.960;2022-09-09T07:28:55;20.20;99.90
29729;DHT22;20055;51.498;11.960;2022-09-09T07:31:27;20.10;99.90
29729;DHT22;20055;51.498;11.960;2022-09-09T07:33:54;20.20;99.90
29729;DHT22;20055;51.498;11.960;2022-09-09T07:36:23;20.40;99.90
29729;DHT22;20055;51.498;11.960;2022-09-09T07:38:52;20.50;99.90
29729;DHT22;20055;51.498;11.960;2022-09-09T07:41:22;20.80;99.90
29729;DHT22;20055;51.498;11.960;2022-09-09T07:43:50;21.10;99.90
29729;DHT22;20055;51.498;11.960;2022-09-09T07:46:18;21.10;99.90
29729;DHT22;20055;51.498;11.960;2022-09-09T07:48:49;21.10;99.90
29729;DHT22;20055;51.498;11.960;2022-09-09T07:51:39;21.20;99.90
29729;DHT22;20055;51.498;11.960;2022-09-09T07:54:07;21.30;99.90
29729;DHT22;20055;51.498;11.960;2022-09-09T07:56:37;21.70;99.90
29729;DHT22;20055;51.498;11.960;2022-09-09T07:59:04;21.60;99.90
29729;DHT22;20055;51.498;11.960;2022-09-09T08:01:38;21.70;99.90
29729;DHT22;20055;51.498;11.960;2022-09-09T08:04:17;21.50;99.90
29729;DHT22;20055;51.498;11.960;2022-09-09T08:06:56;21.30;99.90
29729;DHT22;20055;51.498;11.960;2022-09-09T08:09:25;21.10;99.90
29729;DHT22;20055;51.498;11.960;2022-09-09T08:11:57;21.20;99.90
29729;DHT22;20055;51.498;11.960;2022-09-09T08:14:25;21.20;99.90
29729;DHT22;20055;51.498;11.960;2022-09-09T08:16:51;21.30;99.90
29729;DHT22;20055;51.498;11.960;2022-09-09T08:19:22;21.40;99.90
29729;DHT22;20055;51.498;11.960;2022-09-09T08:21:49;21.20;99.90
29729;DHT22;20055;51.498;11.960;2022-09-09T08:24:16;21.20;99.90
29729;DHT22;20055;51.498;11.960;2022-09-09T08:26:48;21.20;99.90
29729;DHT22;20055;51.498;11.960;2022-09-09T08:29:16;21.20;99.90
29729;DHT22;20055;51.498;11.960;2022-09-09T08:31:49;21.40;99.90
29729;DHT22;20055;51.498;11.960;2022-09-09T08:34:16;21.60;99.90
29729;DHT22;20055;51.498;11.960;2022-09-09T08:36:48;21.60;99.90
29729;DHT22;20055;51.498;11.960;2022-09-09T08:39:17;21.60;99.90
29729;DHT22;20055;51.498;11.960;2022-09-09T08:57:53;22.00;99.90
29729;DHT22;20055;51.498;11.960;2022-09-09T09:00:20;22.00;99.90
29729;DHT22;20055;51.498;11.960;2022-09-09T09:03:02;22.10;99.90
29729;DHT22;20055;51.498;11.960;2022-09-09T09:05:37;22.10;99.90
29729;DHT22;20055;51.498;11.960;2022-09-09T09:08:26;22.10;99.90
29729;DHT22;20055;51.498;11.960;2022-09-09T09:10:56;22.10;99.90
29729;DHT22;20055;51.498;11.960;2022-09-09T09:16:29;21.90;99.90
29729;DHT22;20055;51.498;11.960;2022-09-09T09:18:59;22.10;99.90
29729;DHT22;20055;51.498;11.960;2022-09-09T09:24:01;22.30;99.90
29729;DHT22;20055;51.498;11.960;2022-09-09T09:26:35;22.30;99.90
29729;DHT22;20055;51.498;11.960;2022-09-09T09:29:11;22.30;99.90
29729;DHT22;20055;51.498;11.960;2022-09-09T09:31:38;22.20;99.90
29729;DHT22;20055;51.498;11.960;2022-09-09T09:34:04;22.50;99.90
29729;DHT22;20055;51.498;11.960;2022-09-09T09:36:40;22.50;99.90
29729;DHT22;20055;51.498;11.960;2022-09-09T09:39:10;22.40;99.90
29729;DHT22;20055;51.498;11.960;2022-09-09T09:41:42;22.60;99.90
29729;DHT22;20055;51.498;11.960;2022-09-09T09:44:29;22.50;99.90
29729;DHT22;20055;51.498;11.960;2022-09-09T09:49:55;22.50;99.90
29729;DHT22;20055;51.498;11.960;2022-09-09T09:52:25;22.60;99.90
29729;DHT22;20055;51.498;11.960;2022-09-09T09:54:53;23.00;99.90
29729;DHT22;20055;51.498;11.960;2022-09-09T09:57:25;23.10;99.90
29729;DHT22;20055;51.498;11.960;2022-09-09T10:00:13;23.60;99.90
29729;DHT22;20055;51.498;11.960;2022-09-09T10:02:47;24.00;99.90
29729;DHT22;20055;51.498;11.960;2022-09-09T10:08:05;24.00;99.90
29729;DHT22;20055;51.498;11.960;2022-09-09T10:13:15;23.90;99.90
29729;DHT22;20055;51.498;11.960;2022-09-09T10:18:38;24.40;99.90
29729;DHT22;20055;51.498;11.960;2022-09-09T10:21:20;24.30;99.90
29729;DHT22;20055;51.498;11.960;2022-09-09T10:29:31;25.50;99.90
29729;DHT22;20055;51.498;11.960;2022-09-09T10:34:56;25.60;99.90
29729;DHT22;20055;51.498;11.960;2022-09-09T10:38:37;25.50;99.90
29729;DHT22;20055;51.498;11.960;2022-09-09T10:40:38;24.70;99.90
29729;DHT22;20055;51.498;11.960;2022-09-09T10:51:51;23.30;99.90
29729;DHT22;20055;51.498;11.960;2022-09-09T10:57:40;22.90;99.90
29729;DHT22;20055;51.498;11.960;2022-09-09T11:00:19;22.90;99.90
29729;DHT22;20055;51.498;11.960;2022-09-09T11:03:01;23.00;99.90
29729;DHT22;20055;51.498;11.960;2022-09-09T11:05:42;23.10;99.90
29729;DHT22;20055;51.498;11.960;2022-09-09T11:08:13;23.10;99.90
29729;DHT22;20055;51.498;11.960;2022-09-09T11:10:59;23.40;99.90
29729;DHT22;20055;51.498;11.960;2022-09-09T11:19:04;24.40;99.90
29729;DHT22;20055;51.498;11.960;2022-09-09T11:21:43;24.50;99.90
29729;DHT22;20055;51.498;11.960;2022-09-09T11:24:15;24.90;99.90
29729;DHT22;20055;51.498;11.960;2022-09-09T11:26:52;24.90;99.90
29729;DHT22;20055;51.498;11.960;2022-09-09T11:29:57;25.00;99.90
29729;DHT22;20055;51.498;11.960;2022-09-09T11:35:26;25.20;99.90
29729;DHT22;20055;51.498;11.960;2022-09-09T11:38:09;25.40;99.90
29729;DHT22;20055;51.498;11.960;2022-09-09T11:40:38;25.60;99.90
29729;DHT22;20055;51.498;11.960;2022-09-09T11:43:22;25.90;99.90
29729;DHT22;20055;51.498;11.960;2022-09-09T11:45:55;26.10;99.90
29729;DHT22;20055;51.498;11.960;2022-09-09T11:48:37;26.30;98.60
29729;DHT22;20055;51.498;11.960;2022-09-09T11:51:08;26.20;99.00
29729;DHT22;20055;51.498;11.960;2022-09-09T11:53:52;26.00;98.00
29729;DHT22;20055;51.498;11.960;2022-09-09T11:56:44;25.70;98.70
29729;DHT22;20055;51.498;11.960;2022-09-09T11:59:30;25.80;98.80
29729;DHT22;20055;51.498;11.960;2022-09-09T12:02:12;25.80;98.90
29729;DHT22;20055;51.498;11.960;2022-09-09T12:05:11;25.60;99.20
29729;DHT22;20055;51.498;11.960;2022-09-09T12:07:38;25.60;99.50
29729;DHT22;20055;51.498;11.960;2022-09-09T12:12:37;25.30;99.50
29729;DHT22;20055;51.498;11.960;2022-09-09T12:17:49;25.30;99.90
29729;DHT22;20055;51.498;11.960;2022-09-09T12:33:45;24.60;99.20
29729;DHT22;20055;51.498;11.960;2022-09-09T12:36:16;24.40;99.50
29729;DHT22;20055;51.498;11.960;2022-09-09T12:38:45;24.20;99.90
29729;DHT22;20055;51.498;11.960;2022-09-09T12:41:20;24.00;99.90
29729;DHT22;20055;51.498;11.960;2022-09-09T12:43:47;24.00;99.50
29729;DHT22;20055;51.498;11.960;2022-09-09T12:49:03;24.20;99.60
29729;DHT22;20055;51.498;11.960;2022-09-09T12:51:31;24.20;99.30
29729;DHT22;20055;51.498;11.960;2022-09-09T12:53:59;24.20;99.30
29729;DHT22;20055;51.498;11.960;2022-09-09T12:56:28;24.20;99.10
29729;DHT22;20055;51.498;11.960;2022-09-09T12:58:57;24.30;99.20
29729;DHT22;20055;51.498;11.960;2022-09-09T13:01:31;24.50;99.00
29729;DHT22;20055;51.498;11.960;2022-09-09T13:03:59;24.60;98.20
29729;DHT22;20055;51.498;11.960;2022-09-09T13:06:31;24.80;98.30
29729;DHT22;20055;51.498;11.960;2022-09-09T13:08:59;24.80;98.20
29729;DHT22;20055;51.498;11.960;2022-09-09T13:11:30;24.80;98.60
29729;DHT22;20055;51.498;11.960;2022-09-09T13:14:02;24.90;97.70
29729;DHT22;20055;51.498;11.960;2022-09-09T13:16:34;25.00;97.80
29729;DHT22;20055;51.498;11.960;2022-09-09T13:19:28;25.00;97.90
29729;DHT22;20055;51.498;11.960;2022-09-09T13:21:55;25.30;96.10
29729;DHT22;20055;51.498;11.960;2022-09-09T13:24:26;25.30;96.40
29729;DHT22;20055;51.498;11.960;2022-09-09T13:27:00;25.10;96.90
29729;DHT22;20055;51.498;11.960;2022-09-09T13:29:32;25.00;95.70
29729;DHT22;20055;51.498;11.960;2022-09-09T13:32:16;24.80;97.10
29729;DHT22;20055;51.498;11.960;2022-09-09T13:37:31;24.80;96.60
29729;DHT22;20055;51.498;11.960;2022-09-09T13:39:58;24.60;97.50
29729;DHT22;20055;51.498;11.960;2022-09-09T13:42:29;24.40;98.20
29729;DHT22;20055;51.498;11.960;2022-09-09T13:44:58;24.30;98.40
29729;DHT22;20055;51.498;11.960;2022-09-09T13:47:33;24.20;97.60
29729;DHT22;20055;51.498;11.960;2022-09-09T13:50:20;24.20;98.30
29729;DHT22;20055;51.498;11.960;2022-09-09T13:52:50;24.00;98.70
29729;DHT22;20055;51.498;11.960;2022-09-09T13:55:18;23.90;98.80
29729;DHT22;20055;51.498;11.960;2022-09-09T13:57:58;23.80;98.50
29729;DHT22;20055;51.498;11.960;2022-09-09T14:00:29;23.80;97.90
29729;DHT22;20055;51.498;11.960;2022-09-09T14:02:55;23.80;98.20
29729;DHT22;20055;51.498;11.960;2022-09-09T14:05:22;23.90;98.30
29729;DHT22;20055;51.498;11.960;2022-09-09T14:07:49;24.20;98.10
29729;DHT22;20055;51.498;11.960;2022-09-09T14:10:15;24.50;97.80
29729;DHT22;20055;51.498;11.960;2022-09-09T14:12:42;24.80;97.20
29729;DHT22;20055;51.498;11.960;2022-09-09T14:15:10;24.90;96.90
29729;DHT22;20055;51.498;11.960;2022-09-09T14:17:36;25.00;96.80
29729;DHT22;20055;51.498;11.960;2022-09-09T14:20:03;24.90;97.00
29729;DHT22;20055;51.498;11.960;2022-09-09T14:22:34;24.90;96.70
29729;DHT22;20055;51.498;11.960;2022-09-09T14:25:00;24.90;96.60
29729;DHT22;20055;51.498;11.960;2022-09-09T14:27:27;24.80;95.90
29729;DHT22;20055;51.498;11.960;2022-09-09T14:29:53;24.80;96.30
29729;DHT22;20055;51.498;11.960;2022-09-09T14:32:20;24.80;95.30
29729;DHT22;20055;51.498;11.960;2022-09-09T14:34:47;24.80;94.90
29729;DHT22;20055;51.498;11.960;2022-09-09T14:37:19;24.70;94.40
29729;DHT22;20055;51.498;11.960;2022-09-09T14:39:46;24.80;93.40
29729;DHT22;20055;51.498;11.960;2022-09-09T14:42:14;24.60;93.40
29729;DHT22;20055;51.498;11.960;2022-09-09T14:44:40;24.50;92.30
29729;DHT22;20055;51.498;11.960;2022-09-09T14:47:08;24.40;92.70
29729;DHT22;20055;51.498;11.960;2022-09-09T14:49:35;24.50;91.90
29729;DHT22;20055;51.498;11.960;2022-09-09T14:52:01;24.50;91.90
29729;DHT22;20055;51.498;11.960;2022-09-09T14:54:28;24.40;91.40
29729;DHT22;20055;51.498;11.960;2022-09-09T14:56:54;24.50;91.10
29729;DHT22;20055;51.498;11.960;2022-09-09T14:59:20;24.40;91.90
29729;DHT22;20055;51.498;11.960;2022-09-09T15:01:48;24.50;91.60
29729;DHT22;20055;51.498;11.960;2022-09-09T15:04:14;24.50;92.30
29729;DHT22;20055;51.498;11.960;2022-09-09T15:06:41;24.30;92.10
29729;DHT22;20055;51.498;11.960;2022-09-09T15:09:09;24.30;91.80
29729;DHT22;20055;51.498;11.960;2022-09-09T15:11:36;24.20;92.10
29729;DHT22;20055;51.498;11.960;2022-09-09T15:14:05;24.30;91.50
29729;DHT22;20055;51.498;11.960;2022-09-09T15:16:31;24.20;91.30
29729;DHT22;20055;51.498;11.960;2022-09-09T15:18:59;24.30;91.20
29729;DHT22;20055;51.498;11.960;2022-09-09T15:21:28;24.40;91.20
29729;DHT22;20055;51.498;11.960;2022-09-09T15:23:55;24.40;91.80
29729;DHT22;20055;51.498;11.960;2022-09-09T15:26:22;24.50;91.40
29729;DHT22;20055;51.498;11.960;2022-09-09T15:28:49;24.40;91.90
29729;DHT22;20055;51.498;11.960;2022-09-09T15:31:22;24.40;92.10
29729;DHT22;20055;51.498;11.960;2022-09-09T15:33:53;24.40;92.50
29729;DHT22;20055;51.498;11.960;2022-09-09T15:36:34;24.40;92.70
29729;DHT22;20055;51.498;11.960;2022-09-09T15:39:03;24.50;92.70
29729;DHT22;20055;51.498;11.960;2022-09-09T15:41:30;24.50;92.50
29729;DHT22;20055;51.498;11.960;2022-09-09T15:43:58;24.50;92.50
29729;DHT22;20055;51.498;11.960;2022-09-09T15:46:30;24.50;92.50
29729;DHT22;20055;51.498;11.960;2022-09-09T15:49:20;24.50;92.70
29729;DHT22;20055;51.498;11.960;2022-09-09T15:51:46;24.50;93.00
29729;DHT22;20055;51.498;11.960;2022-09-09T15:54:14;24.50;93.00
29729;DHT22;20055;51.498;11.960;2022-09-09T15:56:43;24.50;92.90
29729;DHT22;20055;51.498;11.960;2022-09-09T15:59:09;24.40;93.10
29729;DHT22;20055;51.498;11.960;2022-09-09T16:01:35;24.40;93.00
29729;DHT22;20055;51.498;11.960;2022-09-09T16:04:02;24.40;93.30
29729;DHT22;20055;51.498;11.960;2022-09-09T16:06:29;24.30;93.20
29729;DHT22;20055;51.498;11.960;2022-09-09T16:08:58;24.20;93.10
29729;DHT22;20055;51.498;11.960;2022-09-09T16:11:28;24.10;93.20
29729;DHT22;20055;51.498;11.960;2022-09-09T16:13:55;23.90;93.50
29729;DHT22;20055;51.498;11.960;2022-09-09T16:16:24;23.90;93.60
29729;DHT22;20055;51.498;11.960;2022-09-09T16:18:52;23.80;93.90
29729;DHT22;20055;51.498;11.960;2022-09-09T16:21:31;23.70;94.20
29729;DHT22;20055;51.498;11.960;2022-09-09T16:24:00;23.70;94.80
29729;DHT22;20055;51.498;11.960;2022-09-09T16:26:27;23.50;95.20
29729;DHT22;20055;51.498;11.960;2022-09-09T16:28:53;23.50;94.70
29729;DHT22;20055;51.498;11.960;2022-09-09T16:31:26;23.50;94.90
29729;DHT22;20055;51.498;11.960;2022-09-09T16:33:53;23.50;95.30
29729;DHT22;20055;51.498;11.960;2022-09-09T16:36:22;23.40;95.20
29729;DHT22;20055;51.498;11.960;2022-09-09T16:38:55;23.30;95.30
29729;DHT22;20055;51.498;11.960;2022-09-09T16:41:24;23.20;94.60
29729;DHT22;20055;51.498;11.960;2022-09-09T16:43:54;23.20;95.00
29729;DHT22;20055;51.498;11.960;2022-09-09T16:46:21;23.20;94.90
29729;DHT22;20055;51.498;11.960;2022-09-09T16:48:48;23.30;94.70
29729;DHT22;20055;51.498;11.960;2022-09-09T16:51:27;23.40;94.30
29729;DHT22;20055;51.498;11.960;2022-09-09T16:53:54;23.50;94.40
29729;DHT22;20055;51.498;11.960;2022-09-09T16:56:23;23.50;94.50
29729;DHT22;20055;51.498;11.960;2022-09-09T16:58:58;23.40;94.60
29729;DHT22;20055;51.498;11.960;2022-09-09T17:01:25;23.40;94.60
29729;DHT22;20055;51.498;11.960;2022-09-09T17:03:56;23.50;94.60
29729;DHT22;20055;51.498;11.960;2022-09-09T17:06:23;23.40;94.60
29729;DHT22;20055;51.498;11.960;2022-09-09T17:08:56;23.40;95.00
29729;DHT22;20055;51.498;11.960;2022-09-09T17:11:23;23.30;94.80
29729;DHT22;20055;51.498;11.960;2022-09-09T17:13:50;23.10;95.00
29729;DHT22;20055;51.498;11.960;2022-09-09T17:16:18;23.00;95.40
29729;DHT22;20055;51.498;11.960;2022-09-09T17:18:44;22.90;95.90
29729;DHT22;20055;51.498;11.960;2022-09-09T17:21:17;22.70;96.30
29729;DHT22;20055;51.498;11.960;2022-09-09T17:23:44;22.60;96.50
29729;DHT22;20055;51.498;11.960;2022-09-09T17:26:14;22.50;96.60
29729;DHT22;20055;51.498;11.960;2022-09-09T17:28:42;22.40;96.90
29729;DHT22;20055;51.498;11.960;2022-09-09T17:31:10;22.30;96.90
29729;DHT22;20055;51.498;11.960;2022-09-09T17:33:39;22.20;97.20
29729;DHT22;20055;51.498;11.960;2022-09-09T17:36:11;22.20;97.10
29729;DHT22;20055;51.498;11.960;2022-09-09T17:38:38;22.10;97.60
29729;DHT22;20055;51.498;11.960;2022-09-09T17:43:32;21.90;97.60
29729;DHT22;20055;51.498;11.960;2022-09-09T17:46:09;21.80;97.50
29729;DHT22;20055;51.498;11.960;2022-09-09T17:48:37;21.70;97.30
29729;DHT22;20055;51.498;11.960;2022-09-09T17:51:04;21.70;97.30
29729;DHT22;20055;51.498;11.960;2022-09-09T17:53:36;21.50;97.50
29729;DHT22;20055;51.498;11.960;2022-09-09T17:56:05;21.50;97.90
29729;DHT22;20055;51.498;11.960;2022-09-09T17:58:32;21.50;97.80